createdAt,value
2022-12-17T00:00:33.428Z,72.27
2022-12-17T00:03:19.942Z,69.83
2022-12-17T00:06:05.748Z,57.23
2022-12-17T00:08:51.837Z,65.23
2022-12-17T00:11:37.505Z,52.90
2022-12-17T00:14:23.033Z,53.83
2022-12-17T00:17:11.464Z,59.23
2022-12-17T00:19:57.318Z,58.23
2022-12-17T00:22:43.310Z,57.80
2022-12-17T00:25:28.671Z,49.03
2022-12-17T00:28:14.597Z,52.17
2022-12-17T00:31:00.725Z,57.40
2022-12-17T00:33:46.325Z,58.63
2022-12-17T00:36:31.795Z,55.23
2022-12-17T00:39:17.613Z,56.00
2022-12-17T00:42:03.001Z,52.80
2022-12-17T00:44:48.991Z,51.87
2022-12-17T00:47:34.342Z,63.73
2022-12-17T00:50:20.167Z,55.30
2022-12-17T00:53:11.010Z,46.93
2022-12-17T00:55:56.378Z,59.83
2022-12-17T00:58:42.831Z,49.67
2022-12-17T01:01:28.367Z,53.70
2022-12-17T01:04:13.736Z,56.07
2022-12-17T01:06:59.272Z,45.97
2022-12-17T01:09:44.582Z,50.27
2022-12-17T01:12:30.533Z,49.00
2022-12-17T01:15:16.544Z,48.73
2022-12-17T01:18:02.374Z,50.33
2022-12-17T01:20:48.206Z,44.47
2022-12-17T01:23:34.034Z,51.03
2022-12-17T01:26:19.633Z,60.57
2022-12-17T01:29:05.235Z,51.30
2022-12-17T01:31:51.135Z,64.53
2022-12-17T01:34:36.801Z,55.40
2022-12-17T01:37:22.861Z,53.13
2022-12-17T01:40:08.253Z,63.37
2022-12-17T01:42:58.352Z,57.97
2022-12-17T01:45:46.415Z,56.00
2022-12-17T01:48:36.215Z,60.23
2022-12-17T01:51:22.688Z,60.80
2022-12-17T01:54:11.201Z,63.83
2022-12-17T01:56:59.869Z,58.43
2022-12-17T02:00:17.067Z,57.73
2022-12-17T02:03:02.732Z,62.93
2022-12-17T02:05:57.964Z,59.97
2022-12-17T02:09:03.088Z,56.63
2022-12-17T02:12:07.153Z,53.70
2022-12-17T02:14:59.714Z,58.27
2022-12-17T02:17:54.722Z,51.53
2022-12-17T02:20:49.195Z,59.47
2022-12-17T02:23:35.509Z,52.07
2022-12-17T02:26:49.572Z,61.27
2022-12-17T02:29:36.808Z,51.73
2022-12-17T02:32:23.822Z,61.50
2022-12-17T02:35:09.613Z,52.13
2022-12-17T02:37:55.399Z,51.80
2022-12-17T02:40:42.721Z,48.07
2022-12-17T02:43:30.153Z,48.70
2022-12-17T02:46:16.101Z,53.87
2022-12-17T02:49:02.152Z,56.50
2022-12-17T02:51:47.579Z,58.77
2022-12-17T02:54:33.414Z,50.17
2022-12-17T02:57:19.386Z,57.13
2022-12-17T03:00:05.117Z,51.17
2022-12-17T03:02:51.210Z,49.10
2022-12-17T03:05:44.880Z,49.10
2022-12-17T03:08:31.257Z,51.90
2022-12-17T03:11:17.135Z,53.13
2022-12-17T03:14:03.148Z,52.33
2022-12-17T03:16:49.124Z,49.73
2022-12-17T03:19:34.750Z,45.70
2022-12-17T03:22:20.747Z,58.40
2022-12-17T03:25:06.560Z,50.50
2022-12-17T03:27:52.462Z,53.63
2022-12-17T03:30:39.056Z,53.53
2022-12-17T03:33:27.623Z,47.97
2022-12-17T03:36:13.616Z,48.70
2022-12-17T03:38:59.087Z,49.20
2022-12-17T03:41:44.538Z,60.50
2022-12-17T03:44:30.452Z,45.67
2022-12-17T03:47:16.153Z,43.90
2022-12-17T03:50:01.470Z,57.20
2022-12-17T03:52:46.920Z,45.60
2022-12-17T03:55:32.853Z,57.00
2022-12-17T03:58:18.810Z,51.57
2022-12-17T04:01:04.258Z,52.37
2022-12-17T04:03:50.224Z,51.00
2022-12-17T04:06:35.523Z,47.67
2022-12-17T04:09:22.949Z,52.63
2022-12-17T04:12:08.498Z,49.70
2022-12-17T04:14:53.888Z,47.57
2022-12-17T04:17:39.863Z,46.57
2022-12-17T04:20:25.847Z,43.13
2022-12-17T04:23:11.588Z,54.73
2022-12-17T04:25:57.039Z,46.77
2022-12-17T04:28:42.359Z,49.30
2022-12-17T04:31:28.375Z,43.73
2022-12-17T04:34:14.075Z,43.03
2022-12-17T04:36:59.963Z,44.20
2022-12-17T04:39:45.392Z,43.43
2022-12-17T04:42:30.695Z,45.30
2022-12-17T04:45:16.668Z,42.60
2022-12-17T04:48:02.783Z,39.03
2022-12-17T04:50:48.871Z,44.77
2022-12-17T04:53:35.299Z,43.90
2022-12-17T04:56:21.097Z,46.27
2022-12-17T04:59:06.517Z,39.40
2022-12-17T05:01:51.952Z,43.50
2022-12-17T05:04:36.987Z,37.03
2022-12-17T05:07:22.402Z,39.53
2022-12-17T05:10:07.874Z,43.77
2022-12-17T05:12:53.722Z,37.13
2022-12-17T05:15:39.786Z,47.60
2022-12-17T05:18:26.639Z,37.30
2022-12-17T05:21:12.267Z,36.47
2022-12-17T05:23:58.158Z,34.03
2022-12-17T05:26:46.617Z,36.97
2022-12-17T05:29:32.721Z,37.47
2022-12-17T05:32:18.199Z,42.93
2022-12-17T05:35:03.944Z,38.30
2022-12-17T05:37:49.830Z,40.93
2022-12-17T05:40:35.330Z,48.30
2022-12-17T05:43:23.705Z,38.97
2022-12-17T05:46:09.591Z,37.83
2022-12-17T05:48:55.093Z,35.63
2022-12-17T05:51:41.120Z,47.07
2022-12-17T05:54:43.833Z,41.30
2022-12-17T05:57:29.293Z,42.20
2022-12-17T06:00:14.695Z,46.37
2022-12-17T06:03:00.346Z,43.47
2022-12-17T06:05:45.736Z,43.63
2022-12-17T06:08:31.120Z,49.33
2022-12-17T06:11:19.023Z,47.80
2022-12-17T06:14:05.492Z,52.03
2022-12-17T06:16:50.901Z,46.20
2022-12-17T06:19:36.285Z,52.60
2022-12-17T06:22:21.723Z,44.07
2022-12-17T06:25:07.125Z,48.87
2022-12-17T06:28:00.522Z,45.07
2022-12-17T06:30:46.807Z,42.50
2022-12-17T06:33:32.369Z,43.50
2022-12-17T06:36:22.525Z,43.07
2022-12-17T06:39:08.804Z,38.27
2022-12-17T06:42:02.032Z,42.30
2022-12-17T06:44:49.335Z,46.47
2022-12-17T06:47:34.523Z,38.07
2022-12-17T06:50:20.006Z,39.63
2022-12-17T06:53:05.954Z,40.90
2022-12-17T06:55:53.874Z,41.17
2022-12-17T06:58:39.796Z,40.77
2022-12-17T07:01:25.318Z,42.17
2022-12-17T07:04:10.540Z,44.57
2022-12-17T07:06:56.468Z,40.27
2022-12-17T07:09:42.439Z,44.07
2022-12-17T07:12:28.270Z,37.73
2022-12-17T07:15:13.699Z,39.97
2022-12-17T07:18:00.630Z,43.37
2022-12-17T07:20:46.386Z,36.67
2022-12-17T07:23:31.927Z,40.20
2022-12-17T07:26:17.788Z,36.97
2022-12-17T07:29:03.351Z,37.50
2022-12-17T07:31:49.477Z,34.63
2022-12-17T07:34:35.153Z,35.10
2022-12-17T07:37:21.001Z,41.83
2022-12-17T07:40:06.464Z,36.47
2022-12-17T07:42:51.875Z,32.53
2022-12-17T07:45:37.876Z,29.20
2022-12-17T07:48:24.013Z,36.90
2022-12-17T07:51:09.955Z,35.33
2022-12-17T07:53:56.125Z,31.27
2022-12-17T07:56:41.937Z,30.43
2022-12-17T07:59:27.841Z,31.40
2022-12-17T08:02:15.978Z,32.47
2022-12-17T08:05:01.212Z,34.87
2022-12-17T08:07:46.631Z,33.00
2022-12-17T08:10:32.530Z,35.60
2022-12-17T08:13:19.967Z,32.50
2022-12-17T08:16:06.618Z,38.13
2022-12-17T08:18:52.619Z,29.20
2022-12-17T08:21:38.578Z,29.80
2022-12-17T08:24:24.451Z,32.83
2022-12-17T08:27:09.983Z,31.77
2022-12-17T08:29:55.446Z,35.13
2022-12-17T08:32:40.883Z,33.13
2022-12-17T08:35:26.467Z,32.83
2022-12-17T08:38:12.396Z,30.83
2022-12-17T08:40:57.823Z,26.90
2022-12-17T08:43:43.400Z,30.07
2022-12-17T08:46:39.386Z,30.20
2022-12-17T08:49:24.881Z,30.07
2022-12-17T08:52:10.724Z,32.27
2022-12-17T08:54:56.550Z,29.60
2022-12-17T08:57:42.383Z,28.80
2022-12-17T09:00:28.656Z,29.40
2022-12-17T09:03:17.961Z,27.67
2022-12-17T09:06:03.251Z,27.87
2022-12-17T09:08:49.220Z,26.97
2022-12-17T09:11:35.184Z,31.07
2022-12-17T09:14:22.479Z,30.53
2022-12-17T09:17:07.999Z,28.83
2022-12-17T09:19:53.295Z,26.63
2022-12-17T09:22:38.609Z,26.43
2022-12-17T09:25:24.648Z,26.33
2022-12-17T09:28:10.527Z,27.90
2022-12-17T09:30:56.009Z,20.37
2022-12-17T09:33:41.687Z,21.67
2022-12-17T09:36:27.763Z,24.43
2022-12-17T09:39:13.618Z,75.50
2022-12-17T09:42:03.958Z,37.90
2022-12-17T09:44:56.421Z,27.03
2022-12-17T09:47:50.619Z,24.67
2022-12-17T09:50:36.529Z,23.43
2022-12-17T09:53:26.600Z,29.47
2022-12-17T09:56:12.562Z,26.10
2022-12-17T09:58:58.991Z,22.10
2022-12-17T10:01:51.174Z,26.33
2022-12-17T10:04:41.981Z,31.23
2022-12-17T10:07:38.554Z,18.03
2022-12-17T10:10:34.234Z,24.97
2022-12-17T10:13:20.325Z,22.87
2022-12-17T10:16:06.321Z,19.80
2022-12-17T10:18:51.982Z,20.87
2022-12-17T10:21:38.363Z,18.43
2022-12-17T10:24:28.294Z,20.00
2022-12-17T10:27:14.052Z,23.37
2022-12-17T10:30:02.011Z,20.73
2022-12-17T10:32:47.933Z,23.93
2022-12-17T10:35:43.576Z,22.70
2022-12-17T10:38:29.613Z,22.70
2022-12-17T10:41:15.442Z,20.33
2022-12-17T10:44:01.588Z,27.37
2022-12-17T10:46:52.221Z,26.93
2022-12-17T10:49:41.978Z,22.40
2022-12-17T10:52:51.257Z,21.10
2022-12-17T10:55:45.848Z,23.13
2022-12-17T10:58:43.744Z,20.93
2022-12-17T11:01:36.745Z,25.00
2022-12-17T11:04:22.569Z,22.60
2022-12-17T11:07:10.494Z,24.07
2022-12-17T11:10:09.005Z,21.57
2022-12-17T11:13:16.033Z,26.73
2022-12-17T11:16:13.107Z,25.20
2022-12-17T11:18:58.870Z,22.80
2022-12-17T11:21:49.989Z,21.07
2022-12-17T11:24:49.646Z,24.10
2022-12-17T11:27:43.824Z,20.30
2022-12-17T11:30:34.255Z,22.63
2022-12-17T11:33:43.617Z,24.97
2022-12-17T11:36:43.168Z,24.47
2022-12-17T11:39:41.697Z,27.10
2022-12-17T11:42:50.980Z,23.03
2022-12-17T11:45:51.856Z,29.13
2022-12-17T11:48:47.367Z,27.70
2022-12-17T11:52:14.362Z,22.83
2022-12-17T11:55:26.133Z,25.80
2022-12-17T11:58:19.636Z,26.03
2022-12-17T12:01:21.435Z,29.43
2022-12-17T12:04:15.671Z,27.27
2022-12-17T12:07:19.191Z,28.60
2022-12-17T12:10:36.674Z,27.40
2022-12-17T12:13:22.491Z,28.77
2022-12-17T12:16:25.488Z,26.83
2022-12-17T12:19:48.672Z,24.23
2022-12-17T12:22:44.708Z,25.17
2022-12-17T12:25:48.793Z,29.07
2022-12-17T12:28:58.131Z,30.13
2022-12-17T12:31:49.628Z,26.50
2022-12-17T12:34:44.052Z,28.97
2022-12-17T12:37:36.413Z,23.40
2022-12-17T12:40:32.939Z,24.17
2022-12-17T12:43:39.830Z,30.97
2022-12-17T12:46:31.939Z,27.80
2022-12-17T12:49:35.671Z,25.97
2022-12-17T12:52:21.607Z,29.73
2022-12-17T12:55:11.312Z,24.77
2022-12-17T12:58:02.349Z,25.20
2022-12-17T13:00:58.376Z,29.73
2022-12-17T13:03:52.585Z,27.37
2022-12-17T13:06:37.642Z,26.67
2022-12-17T13:09:20.709Z,24.80
2022-12-17T13:12:15.222Z,25.33
2022-12-17T13:15:09.610Z,24.93
2022-12-17T13:17:39.916Z,28.03
2022-12-17T13:20:27.008Z,25.50
2022-12-17T13:23:14.279Z,26.40
2022-12-17T13:25:41.446Z,27.30
2022-12-17T13:28:28.240Z,26.23
2022-12-17T13:31:20.535Z,24.20
2022-12-17T13:33:56.333Z,27.63
2022-12-17T13:36:48.786Z,23.80
2022-12-17T13:39:45.672Z,27.83
2022-12-17T13:42:38.098Z,28.17
2022-12-17T13:45:05.407Z,25.73
2022-12-17T13:47:35.206Z,24.30
2022-12-17T13:50:33.731Z,26.87
2022-12-17T13:53:10.546Z,24.00
2022-12-17T13:55:38.373Z,25.00
2022-12-17T13:58:05.441Z,24.43
2022-12-17T14:00:32.890Z,27.77
2022-12-17T14:03:10.865Z,27.80
2022-12-17T14:05:41.890Z,25.07
2022-12-17T14:08:12.149Z,26.40
2022-12-17T14:11:13.174Z,27.60
2022-12-17T14:13:40.573Z,27.83
2022-12-17T14:16:07.918Z,25.73
2022-12-17T14:18:35.722Z,28.60
2022-12-17T14:21:02.716Z,27.10
2022-12-17T14:23:32.288Z,29.07
2022-12-17T14:25:59.823Z,26.67
2022-12-17T14:28:48.705Z,30.03
2022-12-17T14:31:27.210Z,25.37
2022-12-17T14:34:10.920Z,35.73
2022-12-17T14:36:43.248Z,29.43
2022-12-17T14:39:23.902Z,29.80
2022-12-17T14:42:09.475Z,24.40
2022-12-17T14:44:42.670Z,25.70
2022-12-17T14:47:23.413Z,27.63
2022-12-17T14:50:29.021Z,25.07
2022-12-17T14:52:57.945Z,26.63
2022-12-17T14:55:30.018Z,25.37
2022-12-17T14:58:07.877Z,31.33
2022-12-17T15:00:39.102Z,26.30
2022-12-17T15:03:06.731Z,25.63
2022-12-17T15:05:35.189Z,29.80
2022-12-17T15:08:02.244Z,28.53
2022-12-17T15:10:28.911Z,28.57
2022-12-17T15:12:56.097Z,25.90
2022-12-17T15:15:22.859Z,29.30
2022-12-17T15:17:49.990Z,30.33
2022-12-17T15:20:19.662Z,28.40
2022-12-17T15:22:47.640Z,27.10
2022-12-17T15:25:17.769Z,27.87
2022-12-17T15:27:44.941Z,31.33
2022-12-17T15:30:16.320Z,32.67
2022-12-17T15:32:43.419Z,27.13
2022-12-17T15:35:11.686Z,30.30
2022-12-17T15:37:38.606Z,28.03
2022-12-17T15:40:06.914Z,26.67
2022-12-17T15:42:52.614Z,27.10
2022-12-17T15:45:19.674Z,28.27
2022-12-17T15:47:46.344Z,26.53
2022-12-17T15:50:12.984Z,29.40
2022-12-17T15:52:40.057Z,27.50
2022-12-17T15:55:07.074Z,30.10
2022-12-17T15:57:34.183Z,26.90
2022-12-17T16:00:00.821Z,31.00
2022-12-17T16:02:27.607Z,31.27
2022-12-17T16:04:54.432Z,29.23
2022-12-17T16:07:21.070Z,30.40
2022-12-17T16:09:47.777Z,26.37
2022-12-17T16:12:14.881Z,26.40
2022-12-17T16:14:41.523Z,26.67
2022-12-17T16:17:08.225Z,27.87
2022-12-17T16:19:35.303Z,24.03
2022-12-17T16:22:02.016Z,24.80
2022-12-17T16:24:29.094Z,24.83
2022-12-17T16:26:59.412Z,25.20
2022-12-17T16:29:29.904Z,28.20
2022-12-17T16:31:56.594Z,22.73
2022-12-17T16:34:23.667Z,25.53
2022-12-17T16:36:50.739Z,23.33
2022-12-17T16:39:19.098Z,23.63
2022-12-17T16:41:45.867Z,23.10
2022-12-17T16:44:13.226Z,28.20
2022-12-17T16:46:42.544Z,27.33
2022-12-17T16:49:18.352Z,28.67
2022-12-17T16:51:47.922Z,23.90
2022-12-17T16:54:16.971Z,27.03
2022-12-17T16:56:45.121Z,27.13
2022-12-17T16:59:13.485Z,27.77
2022-12-17T17:01:42.254Z,24.73
2022-12-17T17:04:09.928Z,30.20
2022-12-17T17:06:41.064Z,32.37
2022-12-17T17:09:08.060Z,30.43
2022-12-17T17:11:35.168Z,41.70
2022-12-17T17:14:02.232Z,39.80
2022-12-17T17:16:30.221Z,35.50
2022-12-17T17:18:57.477Z,29.90
2022-12-17T17:21:57.753Z,32.23
2022-12-17T17:24:25.745Z,35.00
2022-12-17T17:26:53.883Z,32.97
2022-12-17T17:29:21.054Z,34.30
2022-12-17T17:34:38.883Z,30.13
2022-12-17T17:37:05.947Z,37.57
2022-12-17T17:39:34.108Z,35.97
2022-12-17T17:42:01.361Z,33.13
2022-12-17T17:44:28.464Z,27.43
2022-12-17T17:46:55.293Z,33.93
2022-12-17T17:49:22.438Z,30.53
2022-12-17T17:52:08.974Z,33.83
2022-12-17T17:54:36.551Z,31.77
2022-12-17T17:57:03.274Z,33.63
2022-12-17T17:59:33.607Z,31.37
2022-12-17T18:02:02.338Z,25.83
2022-12-17T18:04:29.211Z,27.93
2022-12-17T18:07:27.174Z,26.87
2022-12-17T18:09:43.667Z,24.97
2022-12-17T18:12:29.660Z,28.63
2022-12-17T18:17:50.707Z,33.90
2022-12-17T18:20:17.941Z,31.63
2022-12-17T18:22:46.069Z,29.33
2022-12-17T18:25:13.203Z,31.87
2022-12-17T18:27:40.256Z,26.00
2022-12-17T18:30:07.587Z,25.20
2022-12-17T18:32:34.730Z,27.37
2022-12-17T18:35:01.772Z,29.67
2022-12-17T18:37:28.553Z,28.20
2022-12-17T18:39:55.214Z,26.70
2022-12-17T18:42:40.459Z,28.67
2022-12-17T18:45:07.635Z,30.03
2022-12-17T18:47:34.753Z,25.90
2022-12-17T18:50:01.830Z,27.60
2022-12-17T18:52:28.910Z,27.33
2022-12-17T18:54:55.603Z,27.27
2022-12-17T18:57:22.304Z,26.47
2022-12-17T18:59:49.549Z,27.63
2022-12-17T19:02:16.796Z,26.00
2022-12-17T19:04:43.534Z,25.10
2022-12-17T19:07:10.722Z,29.53
2022-12-17T19:09:40.416Z,26.57
2022-12-17T19:12:09.258Z,26.17
2022-12-17T19:14:36.452Z,25.00
2022-12-17T19:17:03.484Z,26.30
2022-12-17T19:19:30.234Z,27.57
2022-12-17T19:21:59.580Z,29.33
2022-12-17T19:24:26.385Z,30.77
2022-12-17T19:26:53.179Z,26.57
2022-12-17T19:29:20.652Z,28.70
2022-12-17T19:31:47.824Z,27.97
2022-12-17T19:34:16.297Z,24.80
2022-12-17T19:36:43.808Z,25.73
2022-12-17T19:39:16.474Z,25.77
2022-12-17T19:41:43.632Z,27.33
2022-12-17T19:44:15.463Z,25.97
2022-12-17T19:46:42.449Z,28.00
2022-12-17T19:49:12.346Z,26.57
2022-12-17T19:51:41.151Z,25.90
2022-12-17T19:54:09.369Z,28.20
2022-12-17T19:56:36.731Z,26.97
2022-12-17T19:59:07.110Z,26.40
2022-12-17T20:01:36.733Z,25.57
2022-12-17T20:04:04.336Z,26.70
2022-12-17T20:06:33.457Z,24.80
2022-12-17T20:09:01.367Z,23.40
2022-12-17T20:11:34.514Z,24.57
2022-12-17T20:14:10.485Z,28.60
2022-12-17T20:16:45.492Z,28.93
2022-12-17T20:19:14.586Z,26.13
2022-12-17T20:21:41.848Z,24.80
2022-12-17T20:24:09.277Z,28.43
2022-12-17T20:26:36.899Z,25.37
2022-12-17T20:29:05.019Z,22.07
2022-12-17T20:31:32.736Z,24.00
2022-12-17T20:34:03.729Z,22.77
2022-12-17T20:36:30.580Z,23.97
2022-12-17T20:38:57.343Z,23.57
2022-12-17T20:41:26.159Z,23.37
2022-12-17T20:43:53.601Z,23.83
2022-12-17T20:46:21.790Z,22.97
2022-12-17T20:48:49.294Z,21.93
2022-12-17T20:51:18.703Z,24.30
2022-12-17T20:53:46.087Z,22.17
2022-12-17T20:56:15.699Z,25.40
2022-12-17T20:58:43.165Z,21.83
2022-12-17T21:01:20.780Z,23.87
2022-12-17T21:03:49.623Z,23.30
2022-12-17T21:06:25.134Z,22.43
2022-12-17T21:08:53.448Z,28.27
2022-12-17T21:11:22.898Z,25.23
2022-12-17T21:13:49.987Z,25.17
2022-12-17T21:16:20.356Z,25.87
2022-12-17T21:18:47.846Z,24.93
2022-12-17T21:21:18.269Z,24.77
2022-12-17T21:23:47.111Z,29.33
2022-12-17T21:26:23.720Z,26.53
2022-12-17T21:28:53.137Z,25.67
2022-12-17T21:31:23.014Z,23.93
2022-12-17T21:33:51.721Z,27.97
2022-12-17T21:36:21.367Z,27.50
2022-12-17T21:38:49.354Z,24.73
2022-12-17T21:41:18.640Z,20.13
2022-12-17T21:43:45.746Z,20.40
2022-12-17T21:46:12.993Z,21.67
2022-12-17T21:48:42.495Z,22.03
2022-12-17T21:51:12.338Z,25.30
2022-12-17T21:53:42.755Z,20.43
2022-12-17T21:56:15.503Z,21.57
2022-12-17T21:58:44.490Z,22.37
2022-12-17T22:01:19.311Z,23.43
2022-12-17T22:03:53.848Z,24.57
2022-12-17T22:06:24.028Z,27.87
2022-12-17T22:08:57.130Z,19.90
2022-12-17T22:11:32.894Z,20.63
2022-12-17T22:14:07.352Z,20.20
2022-12-17T22:16:47.223Z,23.50
2022-12-17T22:19:15.168Z,24.50
2022-12-17T22:21:44.544Z,19.87
2022-12-17T22:24:17.791Z,20.33
2022-12-17T22:26:45.076Z,19.33
2022-12-17T22:29:11.984Z,19.30
2022-12-17T22:31:57.108Z,20.20
2022-12-17T22:35:43.860Z,20.93
2022-12-17T22:39:54.403Z,21.90
2022-12-17T22:43:25.120Z,20.90
2022-12-17T22:44:45.169Z,20.83
2022-12-17T22:45:51.637Z,21.03
2022-12-17T22:48:21.247Z,23.60
2022-12-17T22:51:02.467Z,21.73
2022-12-17T22:53:33.183Z,20.23
2022-12-17T22:56:19.438Z,20.47
2022-12-17T22:58:53.472Z,21.03
2022-12-17T23:01:23.102Z,27.53
2022-12-17T23:03:50.260Z,21.33
2022-12-17T23:06:17.876Z,21.00
2022-12-17T23:08:45.157Z,22.40
2022-12-17T23:11:21.502Z,28.03
2022-12-17T23:13:48.586Z,19.80
2022-12-17T23:16:16.154Z,17.77
2022-12-17T23:18:44.146Z,19.60
2022-12-17T23:21:11.610Z,22.50
2022-12-17T23:23:38.991Z,19.97
2022-12-17T23:26:18.361Z,18.30
2022-12-17T23:28:46.089Z,20.60
2022-12-17T23:31:20.215Z,18.83
2022-12-17T23:33:47.566Z,21.37
2022-12-17T23:36:16.992Z,19.13
2022-12-17T23:38:44.691Z,19.70
2022-12-17T23:41:26.776Z,20.97
2022-12-17T23:43:54.549Z,19.60
2022-12-17T23:46:23.003Z,19.43
2022-12-17T23:48:50.302Z,21.57
2022-12-17T23:51:18.811Z,17.60
2022-12-17T23:53:45.639Z,19.47
2022-12-17T23:56:18.299Z,17.77
2022-12-17T23:58:46.516Z,19.93
